INGA4: Red River, Index, AR

                                SHEF ID:       INGA4     Red River at Index, AR
STATION TYPE: Stream Gauge
Regulating: Stage = 19.80, Flow = 104273

PRECIP STAGE RIV-FLOW WTR-TEMP BAT-LOAD
in ft cfs F volt
Ccp-Rev Ccp-Rev Ccp-Rev Ccp-Rev Ccp-Rev
(America/Chicago)
03/22 00:00 0.00 1.54 5009 68.43 12.69
03/22 01:00 0.00 1.51 4915 68.38 12.67
03/22 02:00 0.00 1.49 4852 68.29 12.67
03/22 03:00 0.00 1.46 4759 68.18 12.64
03/22 04:00 0.00 1.43 4666 68.04 12.63
03/22 05:00 0.00 1.40 4573 67.89 12.58
03/22 06:00 0.00 1.37 4481 67.69 12.59
03/22 07:00 0.00 1.34 4389 67.51 12.57
03/22 08:00 0.00 1.31 4298 67.30 12.57
03/22 09:00 0.00 1.28 4208 67.19 12.96
03/22 10:00 0.00 1.24 4088 67.17 13.74
03/22 11:00 0.00 1.21 3999 67.26 13.64
03/22 12:00 0.00 1.18 3910 67.46 13.57
03/22 13:00 0.00 1.15 3822 67.64 13.51
03/22 14:00 0.00 1.12 3734 68.02 13.41
03/22 15:00 0.00 1.09 3647 68.45 13.39
03/22 16:00 0.00 1.06 3561 68.99 13.30
03/22 17:00 0.00 1.03 3475 69.55 13.16
03/22 18:00 0.00 1.01 3418 70.02 13.16
03/22 19:00 0.00 0.98 3333 70.32 13.13
03/22 20:00 0.00 0.97 3305 70.56 12.98
03/22 21:00 0.00 0.94 3221 70.75 12.76
03/22 22:00 0.00 0.92 3165 70.90 12.72
03/22 23:00 0.00 0.90 3109 70.97 12.70
Data processed at Mon 23Mar2026 04:11 GMT

NOTICE: If you are parsing this page

Please convert to using our Data API. Starting early 2026 we will be migrating to: https://water.usace.army.mil with modern pages rendered in JavaScript. When this migration completes you will no longer be able to scrape this page! CWMSDataAPI (CDA)

Timeseries IDs (TSIDs)

TSIDs used from left to right in the data table
INDX.Precip-Inc.Total.1Hour.1Hour.Ccp-Rev
INDX.Stage.Inst.1Hour.0.Ccp-Rev
INDX.Flow.Inst.1Hour.0.Ccp-Rev
INDX.Temp-Water.Inst.1Hour.0.Ccp-Rev
INDX.Volt-Battery Load.Inst.1Hour.0.Ccp-Rev

                            

All information presented herein is the property of the government of the United States of America and may be revised or deleted at any time without prior notice. Dissemination of this information without the expressed written consent of the Public Affairs Office, Tulsa District U.S. Army Corps of Engineers is strictly prohibited. These data are gathered electronically and, as presented, have NOT undergone any form of quality control. These data are NOT guaranteed to be valid or correct.